aviador You're here:

OERK Decoded Metar

RIYADH in SAUDI ARABIA
Report Time2017-11-22 05:00:00
UTC Time2017-11-22 05:18:19
Flight Rules vfr VFR
Wind260° at 02 kt
W.Decomp.*RWY 33: 0.6 kt HW 1.9 kt LCW
W.Rank260° ranks 33
Current wind is below 260° avg. (5.7)
Visibility8000 m
Phenomena:N/A
Clouds:Scattered 040 Hf
Overcast 080 Hf
Expected CloudBase > 3,200 ft AGL from Temp-Dew spread
Ceiling8,000 ft
Temp19°C (ISA +8)
Dew Point11°C (60% RH)
AAT18.6°C
QNH1015 hPa
Density Alt3,058 ft
Elevation2,008 ft
Report Wrong Elevation
Raw Report
METAR OERK 220500Z 26002KT 8000 SCT040 OVC080 19/11 Q1015 NOSIG=

Extra information for OERK:More info

Metar Taf Metar & Taf Last 4 Metars F.Rules Stats Wind Profile Meteogram Temp Stats Airport Information Weather charts Add Link Nearby VenuesMetar ALERT Operation Metar Decoded Social comments